Time;durP1;ratioP1;P1;durP2;ratioP2;P2;SDS_P1;SDS_P2;PMS_P1;PMS_P2;Temp;Humidity;BMP_temperature;BMP_pressure;BME280_temperature;BME280_humidity;BME280_pressure;Samples;Min_cycle;Max_cycle;Signal;HPM_P1;HPM_P2
2022/01/01 00:00:27;;;;;;;;;0.00;0.00;11.90;99.90;;;;;;4995429;28;11474;-58
2022/01/01 00:02:59;;;;;;;;;0.00;0.00;11.90;99.90;;;;;;4997233;28;11433;-58
2022/01/01 00:05:31;;;;;;;;;0.00;0.00;11.90;99.90;;;;;;5016197;28;11466;-58
2022/01/01 00:08:03;;;;;;;;;0.00;0.00;11.90;99.90;;;;;;5013069;28;11587;-58
2022/01/01 00:10:33;;;;;;;;;0.00;0.00;11.90;99.90;;;;;;5015513;28;11456;-58
2022/01/01 00:13:16;;;;;;;;;0.00;0.00;11.90;99.90;;;;;;5014300;28;11470;-58
2022/01/01 00:15:49;;;;;;;;;0.00;0.00;11.90;99.90;;;;;;5015083;28;11466;-58
2022/01/01 00:18:20;;;;;;;;;0.00;0.00;11.90;99.90;;;;;;5014077;28;11450;-59
2022/01/01 00:20:51;;;;;;;;;0.00;0.00;11.90;99.90;;;;;;5014732;28;11382;-59
2022/01/01 00:23:23;;;;;;;;;0.00;0.00;11.90;99.90;;;;;;5014958;28;12988;-56
2022/01/01 00:25:53;;;;;;;;;0.00;0.00;11.90;99.90;;;;;;5014248;28;11454;-59
2022/01/01 00:28:24;;;;;;;;;0.00;0.00;11.90;99.90;;;;;;5013095;28;11460;-57
2022/01/01 00:30:54;;;;;;;;;0.00;0.00;11.90;99.90;;;;;;5010363;28;11428;-58
2022/01/01 00:33:29;;;;;;;;;0.00;0.00;11.90;99.90;;;;;;4998291;28;11516;-58
2022/01/01 00:35:58;;;;;;;;;0.00;0.00;11.90;99.90;;;;;;5014142;28;11644;-57
2022/01/01 00:38:29;;;;;;;;;0.00;0.00;12.00;99.90;;;;;;4997265;28;11478;-58
2022/01/01 00:40:59;;;;;;;;;0.00;0.00;11.90;99.90;;;;;;5013487;28;11434;-57
2022/01/01 00:43:30;;;;;;;;;0.00;0.00;11.90;99.90;;;;;;4996103;28;11434;-58
2022/01/01 00:46:02;;;;;;;;;0.00;0.00;11.90;99.90;;;;;;4998419;28;11497;-57
2022/01/01 00:48:33;;;;;;;;;0.00;0.00;11.90;99.90;;;;;;4995348;28;11449;-59
2022/01/01 00:51:25;;;;;;;;;0.00;0.00;12.00;99.90;;;;;;5014579;28;11469;-57
2022/01/01 00:53:56;;;;;;;;;0.00;0.00;11.90;99.90;;;;;;5013136;28;11423;-59
2022/01/01 00:56:27;;;;;;;;;0.00;0.00;12.00;99.90;;;;;;5018601;28;12638;-59
2022/01/01 00:58:57;;;;;;;;;1.00;1.00;12.00;99.90;;;;;;5015989;28;11425;-59
2022/01/01 01:01:27;;;;;;;;;1.75;1.75;12.00;99.90;;;;;;5018886;28;11557;-58
2022/01/01 01:03:59;;;;;;;;;0.75;0.75;11.90;99.90;;;;;;5017319;28;11607;-56
2022/01/01 01:06:30;;;;;;;;;0.00;0.00;11.90;99.90;;;;;;5016212;28;11469;-58
2022/01/01 01:09:02;;;;;;;;;0.00;0.00;11.90;99.90;;;;;;5015494;28;11470;-57
2022/01/01 01:11:41;;;;;;;;;0.00;0.00;11.90;99.90;;;;;;5000525;28;11432;-59
2022/01/01 01:14:20;;;;;;;;;0.00;0.00;11.90;99.90;;;;;;5014969;28;11409;-60
2022/01/01 01:16:54;;;;;;;;;0.00;0.00;11.90;99.90;;;;;;5016464;28;11438;-58
2022/01/01 01:19:24;;;;;;;;;0.00;0.00;11.90;99.90;;;;;;5000303;28;11665;-58
2022/01/01 01:21:54;;;;;;;;;0.00;0.00;11.90;99.90;;;;;;5018357;28;11466;-57
2022/01/01 01:24:26;;;;;;;;;0.00;0.00;11.90;99.90;;;;;;4997933;28;11438;-59
2022/01/01 01:27:01;;;;;;;;;0.00;0.00;11.90;99.90;;;;;;5015554;28;11614;-59
2022/01/01 01:29:33;;;;;;;;;1.00;1.00;11.80;99.90;;;;;;5000153;28;11411;-57
2022/01/01 01:32:05;;;;;;;;;1.75;1.75;11.80;99.90;;;;;;5017946;28;11444;-59
2022/01/01 01:34:36;;;;;;;;;1.50;1.50;11.80;99.90;;;;;;5012249;28;11432;-58
2022/01/01 01:37:06;;;;;;;;;1.25;1.25;11.80;99.90;;;;;;5018642;28;11373;-58
2022/01/01 01:39:37;;;;;;;;;2.00;2.00;11.70;99.90;;;;;;4982625;28;11519;-59
2022/01/01 01:42:08;;;;;;;;;1.00;1.00;11.70;99.90;;;;;;5018767;28;11520;-59
2022/01/01 01:44:44;;;;;;;;;1.00;1.00;11.70;99.90;;;;;;5017978;28;11515;-58
2022/01/01 01:47:17;;;;;;;;;2.25;2.25;11.70;99.90;;;;;;5016318;28;11502;-59
2022/01/01 01:49:49;;;;;;;;;5.25;5.25;11.70;99.90;;;;;;5015982;28;11592;-57
2022/01/01 01:52:20;;;;;;;;;6.00;6.00;11.70;99.90;;;;;;5014508;28;13069;-59
2022/01/01 01:54:52;;;;;;;;;4.25;4.25;11.60;99.90;;;;;;5017056;28;11544;-57
2022/01/01 01:57:25;;;;;;;;;4.00;4.00;11.60;99.90;;;;;;5014033;28;11476;-58
2022/01/01 01:59:55;;;;;;;;;3.75;3.75;11.60;99.90;;;;;;5019055;28;11511;-58
2022/01/01 02:02:28;;;;;;;;;2.00;2.00;11.60;99.90;;;;;;5021237;28;11503;-58
2022/01/01 02:04:58;;;;;;;;;1.50;1.50;11.50;99.90;;;;;;5023339;28;11553;-57
2022/01/01 02:07:30;;;;;;;;;3.00;2.00;11.50;99.90;;;;;;5021340;28;11477;-58
2022/01/01 02:10:01;;;;;;;;;2.00;2.00;11.50;99.90;;;;;;5017281;28;12447;-57
2022/01/01 02:12:33;;;;;;;;;2.00;2.00;11.40;99.90;;;;;;5017369;28;11785;-58
2022/01/01 02:15:11;;;;;;;;;2.50;2.50;11.40;99.90;;;;;;4997951;28;11527;-57
2022/01/01 02:17:42;;;;;;;;;4.00;4.00;11.40;99.90;;;;;;5014979;28;11552;-58
2022/01/01 02:20:21;;;;;;;;;4.00;4.00;11.40;99.90;;;;;;5000738;28;11660;-60
2022/01/01 02:22:58;;;;;;;;;3.50;3.50;11.40;99.90;;;;;;5003174;28;11479;-58
2022/01/01 02:25:31;;;;;;;;;5.00;5.00;11.30;99.90;;;;;;5013691;28;11055;-58
2022/01/01 02:28:02;;;;;;;;;4.00;3.75;11.30;99.90;;;;;;5014113;28;11804;-57
2022/01/01 02:30:34;;;;;;;;;7.25;7.25;11.30;99.90;;;;;;5017992;28;12228;-58
2022/01/01 02:33:05;;;;;;;;;5.00;5.00;11.30;99.90;;;;;;5013855;28;11566;-58
2022/01/01 02:35:37;;;;;;;;;8.25;8.25;11.30;99.90;;;;;;5014536;28;11516;-61
2022/01/01 02:38:08;;;;;;;;;10.00;10.00;11.20;99.90;;;;;;5015233;28;11545;-58
2022/01/01 02:40:39;;;;;;;;;9.75;9.75;11.20;99.90;;;;;;4999472;28;11529;-57
2022/01/01 02:43:14;;;;;;;;;11.25;11.25;11.20;99.90;;;;;;5012618;28;11489;-58
2022/01/01 02:45:46;;;;;;;;;15.50;14.00;11.20;99.90;;;;;;5017734;28;11575;-57
2022/01/01 02:48:18;;;;;;;;;12.50;12.50;11.20;99.90;;;;;;5014453;28;12648;-58
2022/01/01 02:50:51;;;;;;;;;11.50;11.50;11.20;99.90;;;;;;5015208;28;11495;-59
2022/01/01 02:53:21;;;;;;;;;15.25;15.25;11.20;99.90;;;;;;5018856;28;11540;-59
2022/01/01 02:55:52;;;;;;;;;11.75;11.75;11.10;99.90;;;;;;5011893;28;11527;-58
2022/01/01 02:58:22;;;;;;;;;14.25;12.75;11.10;99.90;;;;;;4998183;28;11503;-57
2022/01/01 03:00:55;;;;;;;;;14.50;14.50;11.10;99.90;;;;;;4998105;28;11645;-57
2022/01/01 03:03:27;;;;;;;;;13.00;13.00;11.10;99.90;;;;;;4998290;28;12204;-57
2022/01/01 03:05:59;;;;;;;;;14.25;13.00;11.10;99.90;;;;;;5009167;28;11496;-58
2022/01/01 03:08:29;;;;;;;;;11.50;10.75;11.10;99.90;;;;;;4999712;28;11488;-59
2022/01/01 03:11:05;;;;;;;;;13.50;13.50;11.10;99.90;;;;;;5013488;28;11573;-60
2022/01/01 03:13:36;;;;;;;;;11.75;11.75;11.20;99.90;;;;;;5014542;28;12281;-61
2022/01/01 03:16:07;;;;;;;;;14.00;14.00;11.10;99.90;;;;;;5015913;28;11507;-58
2022/01/01 03:18:38;;;;;;;;;11.00;11.00;11.10;99.90;;;;;;5012811;28;11537;-59
2022/01/01 03:21:09;;;;;;;;;11.25;10.75;11.10;99.90;;;;;;5014672;28;11534;-59
2022/01/01 03:23:40;;;;;;;;;12.00;12.00;11.10;99.90;;;;;;5015120;28;11582;-57
2022/01/01 03:26:11;;;;;;;;;13.25;13.25;11.00;99.90;;;;;;5012347;28;11545;-57
2022/01/01 03:28:42;;;;;;;;;11.50;11.50;11.00;99.90;;;;;;5001517;28;11510;-58
2022/01/01 03:31:16;;;;;;;;;14.25;14.25;11.00;99.90;;;;;;5008410;28;11490;-58
2022/01/01 03:33:46;;;;;;;;;13.75;13.75;11.00;99.90;;;;;;5017705;28;11489;-58
2022/01/01 03:36:18;;;;;;;;;15.00;13.00;11.00;99.90;;;;;;5010924;28;11510;-60
2022/01/01 03:38:49;;;;;;;;;15.00;15.00;11.00;99.90;;;;;;5014318;28;11521;-57
2022/01/01 03:41:20;;;;;;;;;16.00;16.00;11.00;99.90;;;;;;4993687;28;11545;-58
2022/01/01 03:43:50;;;;;;;;;19.00;19.00;10.90;99.90;;;;;;5014282;28;12217;-59
2022/01/01 03:46:21;;;;;;;;;15.50;15.50;11.00;99.90;;;;;;5019272;28;11727;-57
2022/01/01 03:48:52;;;;;;;;;17.00;17.00;10.90;99.90;;;;;;5014181;28;11589;-58
2022/01/01 03:51:23;;;;;;;;;17.25;17.25;10.90;99.90;;;;;;5000235;28;11553;-59
2022/01/01 03:53:53;;;;;;;;;17.25;17.25;10.90;99.90;;;;;;5014795;28;11588;-59
2022/01/01 03:56:24;;;;;;;;;16.50;15.25;10.90;99.90;;;;;;5013122;28;11540;-58
2022/01/01 03:58:54;;;;;;;;;17.00;17.00;10.90;99.90;;;;;;5009474;28;11548;-58
2022/01/01 04:01:27;;;;;;;;;14.25;14.25;10.90;99.90;;;;;;5016136;28;11656;-58
2022/01/01 04:03:58;;;;;;;;;17.00;15.50;10.90;99.90;;;;;;5014902;28;11538;-58
2022/01/01 04:06:30;;;;;;;;;13.50;13.50;10.90;99.90;;;;;;4997163;28;11588;-58
2022/01/01 04:09:02;;;;;;;;;13.50;11.50;10.90;99.90;;;;;;5014600;28;11540;-56
2022/01/01 04:11:34;;;;;;;;;11.25;11.00;10.90;99.90;;;;;;5014597;28;11553;-58
2022/01/01 04:14:05;;;;;;;;;10.75;9.50;10.90;99.90;;;;;;4997692;28;11551;-58
2022/01/01 04:16:36;;;;;;;;;11.00;9.25;10.90;99.90;;;;;;4996485;28;11577;-60
2022/01/01 04:19:07;;;;;;;;;4.25;4.25;10.80;99.90;;;;;;5013078;28;11667;-57
2022/01/01 04:21:39;;;;;;;;;5.25;2.50;10.80;99.90;;;;;;5014634;28;11583;-58
2022/01/01 04:24:13;;;;;;;;;4.00;4.00;10.80;99.90;;;;;;4999090;28;12336;-59
2022/01/01 04:26:44;;;;;;;;;3.00;3.00;10.80;99.90;;;;;;5000642;28;11496;-57
2022/01/01 04:29:17;;;;;;;;;3.75;3.00;10.80;99.90;;;;;;5018557;28;11527;-57
2022/01/01 04:31:47;;;;;;;;;5.75;5.75;10.80;99.90;;;;;;5016508;28;11552;-58
2022/01/01 04:34:18;;;;;;;;;8.00;5.50;10.80;99.90;;;;;;4986413;28;11552;-57
2022/01/01 04:36:57;;;;;;;;;5.50;5.50;10.70;99.90;;;;;;5016723;28;11525;-59
2022/01/01 04:39:28;;;;;;;;;4.50;4.50;10.70;99.90;;;;;;5018565;28;11631;-57
2022/01/01 04:41:58;;;;;;;;;9.75;6.75;10.70;99.90;;;;;;5015155;28;11610;-58
2022/01/01 04:44:28;;;;;;;;;5.50;5.50;10.70;99.90;;;;;;5016939;28;11638;-57
2022/01/01 04:46:58;;;;;;;;;5.50;5.50;10.70;99.90;;;;;;5014008;28;11517;-57
2022/01/01 04:49:29;;;;;;;;;5.00;5.00;10.70;99.90;;;;;;5017909;28;11484;-57
2022/01/01 04:52:01;;;;;;;;;6.25;6.25;10.60;99.90;;;;;;5017105;28;11529;-58
2022/01/01 04:54:37;;;;;;;;;6.75;6.75;10.60;99.90;;;;;;5016715;28;11488;-59
2022/01/01 04:57:08;;;;;;;;;9.00;6.00;10.60;99.90;;;;;;4981338;28;11534;-57
2022/01/01 04:59:41;;;;;;;;;8.00;8.00;10.60;99.90;;;;;;5020663;28;11528;-58
2022/01/01 05:02:12;;;;;;;;;7.25;7.25;10.60;99.90;;;;;;5017499;28;11621;-58
2022/01/01 05:04:43;;;;;;;;;9.50;9.50;10.50;99.90;;;;;;5017009;28;11496;-60
2022/01/01 05:07:14;;;;;;;;;9.25;9.25;10.50;99.90;;;;;;5017834;28;11612;-58
2022/01/01 05:09:46;;;;;;;;;11.75;11.75;10.50;99.90;;;;;;5016949;28;11534;-58
2022/01/01 05:12:16;;;;;;;;;14.00;12.50;10.40;99.90;;;;;;5017510;28;11547;-58
2022/01/01 05:14:47;;;;;;;;;11.00;11.00;10.40;99.90;;;;;;5015316;28;11535;-59
2022/01/01 05:17:20;;;;;;;;;11.00;11.00;10.40;99.90;;;;;;5017098;28;11544;-60
2022/01/01 05:19:51;;;;;;;;;9.75;9.75;10.40;99.90;;;;;;5015062;28;11539;-57
2022/01/01 05:22:21;;;;;;;;;13.50;13.50;10.30;99.90;;;;;;5017074;28;12184;-58
2022/01/01 05:24:56;;;;;;;;;14.00;13.25;10.30;99.90;;;;;;5014858;28;12215;-59
2022/01/01 05:27:34;;;;;;;;;17.00;17.00;10.20;99.90;;;;;;5014812;28;11716;-58
2022/01/01 05:30:08;;;;;;;;;13.50;13.50;10.20;99.90;;;;;;5016506;28;11526;-58
2022/01/01 05:32:40;;;;;;;;;15.25;14.00;10.10;99.90;;;;;;5000352;28;11541;-61
2022/01/01 05:35:11;;;;;;;;;13.50;13.50;10.10;99.90;;;;;;5014742;28;11496;-59
2022/01/01 05:37:42;;;;;;;;;13.50;13.50;10.10;99.90;;;;;;5022715;28;12415;-59
2022/01/01 05:40:13;;;;;;;;;15.50;13.75;10.10;99.90;;;;;;5013465;28;11709;-59
2022/01/01 05:42:44;;;;;;;;;12.25;12.25;10.10;99.90;;;;;;5016929;28;11530;-57
2022/01/01 05:45:15;;;;;;;;;11.00;11.00;10.10;99.90;;;;;;5014289;28;11547;-59
2022/01/01 05:47:46;;;;;;;;;16.75;14.50;10.10;99.90;;;;;;5015715;28;11575;-60
2022/01/01 05:50:17;;;;;;;;;16.75;16.75;10.10;99.90;;;;;;5015487;28;11636;-58
2022/01/01 05:52:48;;;;;;;;;25.25;25.25;10.00;99.90;;;;;;5003183;28;12341;-57
2022/01/01 05:55:19;;;;;;;;;25.75;25.75;10.10;99.90;;;;;;4999047;28;11562;-59
2022/01/01 05:57:50;;;;;;;;;23.25;21.50;10.00;99.90;;;;;;5014900;28;11559;-58
2022/01/01 06:00:22;;;;;;;;;30.00;30.00;10.00;99.90;;;;;;5017829;28;11610;-59
2022/01/01 06:02:53;;;;;;;;;41.67;38.00;10.00;99.90;;;;;;5017828;28;8977;-58
2022/01/01 06:05:26;;;;;;;;;40.67;37.33;9.90;99.90;;;;;;5015760;28;8851;-59
2022/01/01 06:07:57;;;;;;;;;56.00;48.00;9.90;99.90;;;;;;5014657;28;8867;-58
2022/01/01 06:10:30;;;;;;;;;96.00;90.25;9.90;99.90;;;;;;5016880;28;8889;-57
2022/01/01 06:13:00;;;;;;;;;90.50;86.25;9.80;99.90;;;;;;5013182;28;8896;-58
2022/01/01 06:15:32;;;;;;;;;83.25;73.75;9.80;99.90;;;;;;4998963;28;8850;-57
2022/01/01 06:18:04;;;;;;;;;63.00;53.00;9.80;99.90;;;;;;4997874;28;8846;-59
2022/01/01 06:20:36;;;;;;;;;50.33;42.00;9.80;99.90;;;;;;4983797;28;8866;-57
2022/01/01 06:23:08;;;;;;;;;37.00;34.00;9.70;99.90;;;;;;5013194;28;8991;-59
2022/01/01 06:25:45;;;;;;;;;25.67;25.67;9.70;99.90;;;;;;5014078;28;8849;-58
2022/01/01 06:28:16;;;;;;;;;30.67;30.67;9.70;99.90;;;;;;4994619;28;11575;-57
2022/01/01 06:30:47;;;;;;;;;37.00;36.33;9.60;99.90;;;;;;5014033;28;9458;-57
2022/01/01 06:33:20;;;;;;;;;51.00;43.00;9.60;99.90;;;;;;5014383;28;8874;-59
2022/01/01 06:35:52;;;;;;;;;58.00;49.00;9.50;99.90;;;;;;5017236;28;8869;-58
2022/01/01 06:38:22;;;;;;;;;49.33;44.00;9.50;99.90;;;;;;5014096;28;8864;-57
2022/01/01 06:40:54;;;;;;;;;51.00;43.33;9.40;99.90;;;;;;4997716;28;8865;-58
2022/01/01 06:43:24;;;;;;;;;37.67;34.33;9.50;99.90;;;;;;5012965;28;8894;-58
2022/01/01 06:45:54;;;;;;;;;45.67;39.67;9.50;99.90;;;;;;5016069;28;8850;-57
2022/01/01 06:48:25;;;;;;;;;38.67;36.33;9.50;99.90;;;;;;5012237;28;8893;-59
2022/01/01 06:50:55;;;;;;;;;47.00;40.00;9.40;99.90;;;;;;5015362;28;8849;-58
2022/01/01 06:53:25;;;;;;;;;41.67;37.33;9.30;99.90;;;;;;5016565;28;9522;-59
2022/01/01 06:55:56;;;;;;;;;36.67;33.00;9.40;99.90;;;;;;5014191;28;8853;-58
2022/01/01 06:58:27;;;;;;;;;42.33;38.00;9.30;99.90;;;;;;5014427;28;8842;-58
2022/01/01 07:00:57;;;;;;;;;44.67;39.33;9.40;99.90;;;;;;4996795;28;8909;-58
2022/01/01 07:03:27;;;;;;;;;40.67;36.33;9.30;99.90;;;;;;5015769;28;8830;-58
2022/01/01 07:05:59;;;;;;;;;27.00;27.00;9.30;99.90;;;;;;5015264;28;9653;-58
2022/01/01 07:08:30;;;;;;;;;26.00;24.67;9.30;99.90;;;;;;4998595;28;8849;-61
2022/01/01 07:11:01;;;;;;;;;25.33;25.33;9.30;99.90;;;;;;5013096;28;8881;-57
2022/01/01 07:13:32;;;;;;;;;33.00;31.33;9.20;99.90;;;;;;5015387;28;8818;-58
2022/01/01 07:16:03;;;;;;;;;30.33;30.00;9.10;99.90;;;;;;5017176;28;8928;-58
2022/01/01 07:18:33;;;;;;;;;29.67;29.67;9.00;99.90;;;;;;5014431;28;9713;-58
2022/01/01 07:21:04;;;;;;;;;28.33;26.67;9.10;99.90;;;;;;5014917;28;8854;-58
2022/01/01 07:23:35;;;;;;;;;26.33;26.33;9.10;99.90;;;;;;4998875;28;8841;-58
2022/01/01 07:26:06;;;;;;;;;39.33;34.67;9.10;99.90;;;;;;5012669;28;8852;-58
2022/01/01 07:28:37;;;;;;;;;23.67;23.67;9.00;99.90;;;;;;5014285;28;8988;-58
2022/01/01 07:31:08;;;;;;;;;31.00;29.67;8.90;99.90;;;;;;4996704;28;8877;-58
2022/01/01 07:33:44;;;;;;;;;36.00;35.00;9.00;99.90;;;;;;4997179;28;8862;-59
2022/01/01 07:36:15;;;;;;;;;32.00;32.00;8.90;99.90;;;;;;5009246;28;8831;-58
2022/01/01 07:38:46;;;;;;;;;29.33;29.33;8.80;99.90;;;;;;5011564;28;8853;-60
2022/01/01 07:41:17;;;;;;;;;24.00;24.00;8.80;99.90;;;;;;5014752;28;8855;-57
2022/01/01 07:43:48;;;;;;;;;28.67;28.00;8.80;99.90;;;;;;5013466;28;8842;-56
2022/01/01 07:46:19;;;;;;;;;27.33;26.67;8.80;99.90;;;;;;5012261;28;8896;-55
2022/01/01 07:48:50;;;;;;;;;31.33;31.33;8.80;99.90;;;;;;5009286;28;8893;-55
2022/01/01 07:51:22;;;;;;;;;38.00;35.67;8.80;99.90;;;;;;4997800;28;8904;-54
2022/01/01 07:53:52;;;;;;;;;44.67;39.33;8.80;99.90;;;;;;4997606;28;9570;-53
2022/01/01 07:56:22;;;;;;;;;33.00;33.00;8.70;99.90;;;;;;5012932;28;8873;-55
2022/01/01 07:58:53;;;;;;;;;43.33;40.00;8.70;99.90;;;;;;5009871;28;8865;-53
2022/01/01 08:01:24;;;;;;;;;37.67;36.67;8.70;99.90;;;;;;5013122;28;8843;-54
2022/01/01 08:04:01;;;;;;;;;47.33;41.67;8.70;99.90;;;;;;5011190;28;8858;-58
2022/01/01 08:06:32;;;;;;;;;47.67;41.67;8.70;99.90;;;;;;5013085;28;8827;-55
2022/01/01 08:09:04;;;;;;;;;49.00;42.33;8.60;99.90;;;;;;5009726;28;8881;-54
2022/01/01 08:11:35;;;;;;;;;54.33;45.33;8.60;99.90;;;;;;5007581;28;8881;-55
2022/01/01 08:14:06;;;;;;;;;53.33;44.00;8.60;99.90;;;;;;5011144;28;8877;-55
2022/01/01 08:17:00;;;;;;;;;51.00;43.00;8.50;99.90;;;;;;5009183;28;11012;-55
2022/01/01 08:19:31;;;;;;;;;54.00;45.33;8.50;99.90;;;;;;5011477;28;8864;-53
2022/01/01 08:22:04;;;;;;;;;53.67;44.00;8.50;99.90;;;;;;5011393;28;8884;-54
2022/01/01 08:24:35;;;;;;;;;45.00;40.67;8.40;99.90;;;;;;5010757;28;8885;-56
2022/01/01 08:27:05;;;;;;;;;49.00;40.67;8.40;99.90;;;;;;5010726;28;8850;-56
2022/01/01 08:29:37;;;;;;;;;52.33;44.33;8.40;99.90;;;;;;5010576;28;8885;-57
2022/01/01 08:32:07;;;;;;;;;48.00;42.33;8.40;99.90;;;;;;4990800;28;9911;-56
2022/01/01 08:34:38;;;;;;;;;56.00;46.00;8.40;99.90;;;;;;5005434;28;9329;-56
2022/01/01 08:37:09;;;;;;;;;46.33;41.67;8.40;99.90;;;;;;5011894;28;8868;-55
2022/01/01 08:39:42;;;;;;;;;49.33;42.33;8.40;99.90;;;;;;5010897;28;8862;-54
2022/01/01 08:42:16;;;;;;;;;72.25;57.75;8.30;99.90;;;;;;4997488;28;8846;-55
2022/01/01 08:44:47;;;;;;;;;86.00;77.75;8.30;99.90;;;;;;5005875;28;8906;-58
2022/01/01 08:47:24;;;;;;;;;68.00;56.75;8.20;99.90;;;;;;5010782;28;8903;-55
2022/01/01 08:49:55;;;;;;;;;50.33;44.33;8.20;99.90;;;;;;5010281;28;8901;-54
2022/01/01 08:52:28;;;;;;;;;44.67;41.00;8.30;99.90;;;;;;4997021;28;8901;-54
2022/01/01 08:54:59;;;;;;;;;32.00;30.33;8.30;99.90;;;;;;5008563;28;8881;-55
2022/01/01 08:57:32;;;;;;;;;48.67;43.00;8.20;99.90;;;;;;5006015;28;8866;-51
2022/01/01 09:00:04;;;;;;;;;42.33;38.00;8.10;99.90;;;;;;5000961;28;8864;-49
2022/01/01 09:02:34;;;;;;;;;35.00;35.00;8.20;99.90;;;;;;4991072;28;8897;-53
2022/01/01 09:05:06;;;;;;;;;24.33;24.33;8.10;99.90;;;;;;5009936;28;8874;-50
2022/01/01 09:07:36;;;;;;;;;48.00;42.00;8.10;99.90;;;;;;5010059;28;8861;-54
2022/01/01 09:10:08;;;;;;;;;58.67;49.00;8.10;99.90;;;;;;4980308;28;8858;-54
2022/01/01 09:12:38;;;;;;;;;59.00;50.67;8.00;99.90;;;;;;5007967;28;8846;-55
2022/01/01 09:15:09;;;;;;;;;58.00;50.00;7.90;99.90;;;;;;5011157;28;9605;-55
2022/01/01 09:17:39;;;;;;;;;57.00;45.67;7.90;99.90;;;;;;5017009;28;8870;-52
2022/01/01 09:20:12;;;;;;;;;32.67;32.00;8.00;99.90;;;;;;5016329;28;8869;-55
2022/01/01 09:22:46;;;;;;;;;47.67;42.00;8.00;99.90;;;;;;5015073;28;8882;-56
2022/01/01 09:25:17;;;;;;;;;11.00;11.00;7.90;99.90;;;;;;5014457;28;8865;-56
2022/01/01 09:27:48;;;;;;;;;51.33;43.00;7.80;99.90;;;;;;5015565;28;8870;-56
2022/01/01 09:30:20;;;;;;;;;40.33;38.00;7.90;99.90;;;;;;5013568;28;8652;-56
2022/01/01 09:32:52;;;;;;;;;37.00;36.33;7.90;99.90;;;;;;5016229;28;8880;-56
2022/01/01 09:35:23;;;;;;;;;41.00;38.33;7.80;99.90;;;;;;5016577;28;9117;-56
2022/01/01 09:37:54;;;;;;;;;35.67;33.00;7.70;99.90;;;;;;5012575;28;8874;-55
2022/01/01 09:40:26;;;;;;;;;34.67;34.67;7.70;99.90;;;;;;5016150;28;8872;-55
2022/01/01 09:42:58;;;;;;;;;40.67;37.00;7.70;99.90;;;;;;5018021;28;8975;-54
2022/01/01 09:45:30;;;;;;;;;37.33;36.00;7.70;99.90;;;;;;5019595;28;8826;-54
2022/01/01 09:48:03;;;;;;;;;31.00;31.00;7.70;99.90;;;;;;4998494;28;8838;-56
2022/01/01 09:50:33;;;;;;;;;26.33;26.33;7.70;99.90;;;;;;5015844;28;8869;-54
2022/01/01 09:53:03;;;;;;;;;32.67;30.67;7.70;99.90;;;;;;5004178;28;9021;-54
2022/01/01 09:55:36;;;;;;;;;22.33;21.00;7.70;99.90;;;;;;5013528;28;8826;-58
2022/01/01 09:58:07;;;;;;;;;21.00;20.00;7.70;99.90;;;;;;5010112;28;8972;-54
2022/01/01 10:00:38;;;;;;;;;18.33;18.33;7.70;99.90;;;;;;5021783;28;8861;-55
2022/01/01 10:03:13;;;;;;;;;15.33;15.33;7.70;99.90;;;;;;5021846;28;8838;-52
2022/01/01 10:06:04;;;;;;;;;20.33;20.33;7.60;99.90;;;;;;5020613;28;9570;-57
2022/01/01 10:08:36;;;;;;;;;21.00;21.00;7.60;99.90;;;;;;5019052;28;8865;-54
2022/01/01 10:11:08;;;;;;;;;20.33;20.33;7.60;99.90;;;;;;5014397;28;8850;-55
2022/01/01 10:13:45;;;;;;;;;18.67;18.67;7.60;99.90;;;;;;5019747;28;8870;-54
2022/01/01 10:16:16;;;;;;;;;17.33;17.33;7.50;99.90;;;;;;5016444;28;9597;-55
2022/01/01 10:18:52;;;;;;;;;17.00;17.00;7.60;99.90;;;;;;5018826;28;8896;-54
2022/01/01 10:21:26;;;;;;;;;25.33;23.67;7.50;99.90;;;;;;5016134;28;8884;-53
2022/01/01 10:23:58;;;;;;;;;23.00;20.67;7.40;99.90;;;;;;5018320;28;8999;-54
2022/01/01 10:29:37;;;;;;;;;25.33;24.00;7.40;99.90;;;;;;5017377;28;8850;-55
2022/01/01 10:32:13;;;;;;;;;25.33;23.33;7.30;99.90;;;;;;5014390;28;8866;-54
2022/01/01 10:34:46;;;;;;;;;24.67;24.67;7.30;99.90;;;;;;5011341;28;9542;-54
2022/01/01 10:37:34;;;;;;;;;19.00;19.00;7.30;99.90;;;;;;5013518;28;8876;-52
2022/01/01 10:40:11;;;;;;;;;20.33;20.33;7.40;99.90;;;;;;5011298;28;8869;-54
2022/01/01 10:42:50;;;;;;;;;18.00;18.00;7.40;99.90;;;;;;5013664;28;9608;-62
2022/01/01 10:45:39;;;;;;;;;26.67;26.67;7.40;99.90;;;;;;5013595;28;8872;-54
2022/01/01 10:48:24;;;;;;;;;23.67;19.67;7.30;99.90;;;;;;5016566;28;8846;-55
2022/01/01 10:50:55;;;;;;;;;17.67;14.67;7.20;99.90;;;;;;5012306;28;8857;-55
2022/01/01 10:53:29;;;;;;;;;19.00;19.00;7.30;99.90;;;;;;5016683;28;9000;-55
2022/01/01 10:56:01;;;;;;;;;20.00;20.00;7.30;99.90;;;;;;4990197;28;8836;-58
2022/01/01 10:58:34;;;;;;;;;16.67;16.67;7.20;99.90;;;;;;5016493;28;8826;-54
2022/01/01 11:01:07;;;;;;;;;20.00;20.00;7.20;99.90;;;;;;5011633;28;8878;-55
2022/01/01 11:03:41;;;;;;;;;20.67;19.33;7.10;99.90;;;;;;5016951;28;9546;-54
2022/01/01 11:06:17;;;;;;;;;29.00;24.33;7.10;99.90;;;;;;5011713;28;8830;-57
2022/01/01 11:08:50;;;;;;;;;18.67;18.67;7.00;99.90;;;;;;5012434;28;8973;-56
2022/01/01 11:11:22;;;;;;;;;23.00;23.00;7.00;99.90;;;;;;5009987;28;8847;-55
2022/01/01 11:13:53;;;;;;;;;27.67;27.67;7.10;99.90;;;;;;5015096;28;8854;-57
2022/01/01 11:16:23;;;;;;;;;23.00;21.33;7.00;99.90;;;;;;5010379;28;9009;-55
2022/01/01 11:18:54;;;;;;;;;24.67;24.67;6.90;99.90;;;;;;5015143;28;8869;-56
2022/01/01 11:21:24;;;;;;;;;26.33;23.00;6.90;99.90;;;;;;4997447;28;8932;-55
2022/01/01 11:23:55;;;;;;;;;24.33;24.33;6.90;99.90;;;;;;5014653;28;9610;-55
2022/01/01 11:26:27;;;;;;;;;22.67;22.67;6.80;99.90;;;;;;5011378;28;9288;-55
2022/01/01 11:28:58;;;;;;;;;28.33;28.33;6.80;99.90;;;;;;5015059;28;8888;-58
2022/01/01 11:31:30;;;;;;;;;22.00;22.00;6.80;99.90;;;;;;5010659;28;8855;-56
2022/01/01 11:34:03;;;;;;;;;26.00;26.00;6.80;99.90;;;;;;5013702;28;8902;-57
2022/01/01 11:36:35;;;;;;;;;34.33;32.00;6.80;99.90;;;;;;4997561;28;8893;-55
2022/01/01 11:39:12;;;;;;;;;19.33;19.33;6.80;99.90;;;;;;5010510;28;8876;-55
2022/01/01 11:41:45;;;;;;;;;25.67;24.67;6.70;99.90;;;;;;4995079;28;8937;-55
2022/01/01 11:44:37;;;;;;;;;26.00;26.00;6.70;99.90;;;;;;5013542;28;8977;-57
2022/01/01 11:47:16;;;;;;;;;29.67;26.33;6.80;99.90;;;;;;4998793;28;8896;-55
2022/01/01 11:49:48;;;;;;;;;25.33;24.00;6.80;99.90;;;;;;5012737;28;8898;-55
2022/01/01 11:52:42;;;;;;;;;25.00;25.00;6.80;99.90;;;;;;5011053;28;8939;-58
2022/01/01 11:55:17;;;;;;;;;19.00;19.00;6.90;99.90;;;;;;4997804;28;8838;-55
2022/01/01 11:57:59;;;;;;;;;28.00;28.00;6.80;99.90;;;;;;5008445;28;8850;-54
2022/01/01 12:00:30;;;;;;;;;23.00;20.67;6.70;99.90;;;;;;5014336;28;8898;-54
2022/01/01 12:03:16;;;;;;;;;23.67;23.67;6.70;99.90;;;;;;5014045;28;8850;-55
2022/01/01 12:06:03;;;;;;;;;23.67;22.00;6.70;99.90;;;;;;5009458;28;8888;-54
2022/01/01 12:08:46;;;;;;;;;23.00;21.33;6.70;99.90;;;;;;5012592;28;8851;-53
2022/01/01 12:11:33;;;;;;;;;21.33;21.33;6.80;99.90;;;;;;5009723;28;8885;-54
2022/01/01 12:14:03;;;;;;;;;22.00;22.00;6.70;99.90;;;;;;4994649;28;8897;-56
2022/01/01 12:16:49;;;;;;;;;21.33;21.33;6.70;99.90;;;;;;5012381;28;8874;-54
2022/01/01 12:19:23;;;;;;;;;22.67;22.00;6.70;99.90;;;;;;5012864;28;8997;-58
2022/01/01 12:22:07;;;;;;;;;10.67;10.67;6.70;99.90;;;;;;5011700;28;8850;-55
2022/01/01 12:24:42;;;;;;;;;26.00;23.00;6.60;99.90;;;;;;4993875;28;9522;-54
2022/01/01 12:27:18;;;;;;;;;22.67;22.67;6.70;99.90;;;;;;5012409;28;8881;-55
2022/01/01 12:30:05;;;;;;;;;22.33;22.33;6.60;99.90;;;;;;5006030;28;8893;-57
2022/01/01 12:32:44;;;;;;;;;22.33;20.33;6.50;99.90;;;;;;5013178;28;8830;-55
2022/01/01 12:35:22;;;;;;;;;19.00;19.00;6.50;99.90;;;;;;5010795;28;8846;-55
2022/01/01 12:38:09;;;;;;;;;22.67;22.00;6.50;99.90;;;;;;5012939;28;8865;-56
2022/01/01 12:41:16;;;;;;;;;20.00;20.00;6.50;99.90;;;;;;5011575;28;8880;-55
2022/01/01 12:44:01;;;;;;;;;21.00;21.00;6.50;99.90;;;;;;4976943;28;8846;-56
2022/01/01 12:46:36;;;;;;;;;19.00;19.00;6.50;99.90;;;;;;4993542;28;8881;-56
2022/01/01 12:49:08;;;;;;;;;15.33;15.33;6.50;99.90;;;;;;4991116;28;8846;-53
2022/01/01 12:51:40;;;;;;;;;21.67;21.67;6.50;99.90;;;;;;5000298;28;8838;-57
2022/01/01 12:54:16;;;;;;;;;24.00;21.00;6.50;99.90;;;;;;5000127;28;8866;-55
2022/01/01 12:56:48;;;;;;;;;19.67;19.67;6.50;99.90;;;;;;5018146;28;8878;-56
2022/01/01 12:59:21;;;;;;;;;21.00;21.00;6.40;99.90;;;;;;4999872;28;8886;-55
2022/01/01 13:02:00;;;;;;;;;16.67;16.67;6.30;99.90;;;;;;5017229;28;9046;-54
2022/01/01 13:04:31;;;;;;;;;21.00;18.67;6.30;99.90;;;;;;5012998;28;8865;-55
2022/01/01 13:07:03;;;;;;;;;22.33;22.33;6.30;99.90;;;;;;4983500;28;8888;-55
2022/01/01 13:09:36;;;;;;;;;20.67;20.67;6.20;99.90;;;;;;5013761;28;8882;-54
2022/01/01 13:12:08;;;;;;;;;19.33;19.33;6.20;99.90;;;;;;5017347;28;8881;-55
2022/01/01 13:14:38;;;;;;;;;21.00;19.33;6.20;99.90;;;;;;5013267;28;10131;-55